Time;durP1;ratioP1;P1;durP2;ratioP2;P2;SDS_P1;SDS_P2;PMS_P1;PMS_P2;Temp;Humidity;BMP_temperature;BMP_pressure;BME280_temperature;BME280_humidity;BME280_pressure;Samples;Min_cycle;Max_cycle;Signal;HPM_P1;HPM_P2
2022/12/07 00:00:01;;;;;;;6.53;3.47;;;;;;;;;;5242448;28;20049;-69
2022/12/07 00:02:32;;;;;;;6.50;3.72;;;;;;;;;;5243133;28;20024;-69
2022/12/07 00:05:03;;;;;;;5.25;3.47;;;;;;;;;;5242149;28;20097;-69
2022/12/07 00:07:35;;;;;;;5.85;3.60;;;;;;;;;;5242891;28;20076;-70
2022/12/07 00:10:06;;;;;;;3.88;3.25;;;;;;;;;;5243000;28;20393;-70
2022/12/07 00:12:37;;;;;;;5.63;3.50;;;;;;;;;;5242252;28;20021;-69
2022/12/07 00:15:09;;;;;;;4.15;3.00;;;;;;;;;;5242681;28;20128;-69
2022/12/07 00:17:40;;;;;;;5.25;3.92;;;;;;;;;;5242438;28;20381;-69
2022/12/07 00:20:11;;;;;;;6.14;3.68;;;;;;;;;;5242649;28;20029;-69
2022/12/07 00:22:42;;;;;;;5.65;3.63;;;;;;;;;;5242228;28;20013;-69
2022/12/07 00:25:13;;;;;;;5.93;3.72;;;;;;;;;;5243090;28;20022;-69
2022/12/07 00:27:45;;;;;;;4.25;3.60;;;;;;;;;;5241256;28;20030;-69
2022/12/07 00:30:16;;;;;;;4.55;3.70;;;;;;;;;;5242856;28;20025;-70
2022/12/07 00:32:47;;;;;;;4.40;3.83;;;;;;;;;;5240726;28;20500;-70
2022/12/07 00:35:18;;;;;;;5.32;3.55;;;;;;;;;;5242585;28;20100;-69
2022/12/07 00:37:49;;;;;;;4.56;3.86;;;;;;;;;;5241855;28;20546;-71
2022/12/07 00:40:21;;;;;;;4.38;3.20;;;;;;;;;;5241552;28;20481;-70
2022/12/07 00:42:52;;;;;;;4.28;3.67;;;;;;;;;;5242321;28;20033;-70
2022/12/07 00:45:23;;;;;;;4.45;3.55;;;;;;;;;;5242569;28;20380;-69
2022/12/07 00:47:54;;;;;;;3.58;2.85;;;;;;;;;;5241248;28;20033;-70
2022/12/07 00:50:25;;;;;;;4.88;3.15;;;;;;;;;;5242291;28;20380;-69
2022/12/07 00:52:57;;;;;;;4.60;2.90;;;;;;;;;;5242124;28;20376;-69
2022/12/07 00:55:28;;;;;;;6.22;3.40;;;;;;;;;;5241447;28;20025;-70
2022/12/07 00:57:59;;;;;;;5.53;2.88;;;;;;;;;;5242109;28;20026;-69
2022/12/07 01:00:30;;;;;;;4.10;3.30;;;;;;;;;;5241954;28;20026;-69
2022/12/07 01:03:02;;;;;;;4.85;2.83;;;;;;;;;;5241236;28;20024;-70
2022/12/07 01:05:33;;;;;;;3.70;2.80;;;;;;;;;;5241757;28;20025;-69
2022/12/07 01:08:05;;;;;;;4.10;3.05;;;;;;;;;;5241072;28;20035;-70
2022/12/07 01:10:36;;;;;;;3.33;2.53;;;;;;;;;;5241918;28;20025;-69
2022/12/07 01:13:08;;;;;;;3.65;2.40;;;;;;;;;;5241804;28;20104;-69
2022/12/07 01:15:40;;;;;;;4.00;2.75;;;;;;;;;;5240635;28;20027;-70
2022/12/07 01:18:11;;;;;;;3.63;2.65;;;;;;;;;;5242104;28;20028;-69
2022/12/07 01:20:42;;;;;;;4.22;2.60;;;;;;;;;;5241198;28;20017;-69
2022/12/07 01:23:14;;;;;;;4.65;2.65;;;;;;;;;;5241106;28;20491;-70
2022/12/07 01:25:45;;;;;;;3.10;2.15;;;;;;;;;;5241191;28;20033;-69
2022/12/07 01:28:16;;;;;;;3.30;2.67;;;;;;;;;;5241493;28;20079;-69
2022/12/07 01:30:57;;;;;;;3.58;2.40;;;;;;;;;;5240329;28;20009;-69
2022/12/07 01:33:30;;;;;;;3.85;3.10;;;;;;;;;;5241447;28;20044;-70
2022/12/07 01:36:05;;;;;;;3.05;2.47;;;;;;;;;;5240815;28;20033;-70
2022/12/07 01:38:36;;;;;;;4.93;2.80;;;;;;;;;;5241155;28;20388;-69
2022/12/07 01:41:07;;;;;;;4.50;2.58;;;;;;;;;;5241273;28;20018;-69
2022/12/07 01:43:57;;;;;;;4.15;2.75;;;;;;;;;;5239961;28;20113;-70
2022/12/07 01:46:31;;;;;;;4.50;2.50;;;;;;;;;;5241191;28;20026;-69
2022/12/07 01:49:04;;;;;;;3.55;2.40;;;;;;;;;;5240850;28;20033;-69
2022/12/07 01:51:37;;;;;;;2.45;2.22;;;;;;;;;;5240338;28;20025;-68
2022/12/07 01:54:09;;;;;;;5.38;2.40;;;;;;;;;;5240709;28;20051;-69
2022/12/07 01:56:42;;;;;;;4.38;2.50;;;;;;;;;;5240498;28;20388;-70
2022/12/07 01:59:14;;;;;;;5.47;2.50;;;;;;;;;;5240354;28;20025;-69
2022/12/07 02:01:45;;;;;;;3.55;2.30;;;;;;;;;;5240505;28;20111;-69
2022/12/07 02:04:17;;;;;;;4.25;2.80;;;;;;;;;;5240407;28;20017;-69
2022/12/07 02:06:49;;;;;;;4.57;2.22;;;;;;;;;;5240417;28;20017;-70
2022/12/07 02:09:20;;;;;;;3.70;2.55;;;;;;;;;;5240452;28;20120;-71
2022/12/07 02:11:52;;;;;;;3.70;2.72;;;;;;;;;;5239735;28;20375;-69
2022/12/07 02:14:23;;;;;;;3.53;2.28;;;;;;;;;;5240558;28;20095;-70
2022/12/07 02:17:13;;;;;;;3.03;2.25;;;;;;;;;;5240577;28;20100;-69
2022/12/07 02:20:01;;;;;;;5.63;2.35;;;;;;;;;;5239471;28;20033;-70
2022/12/07 02:22:58;;;;;;;4.43;2.47;;;;;;;;;;5240519;28;20124;-69
2022/12/07 02:25:39;;;;;;;3.03;1.92;;;;;;;;;;5201529;28;20505;-68
2022/12/07 02:28:13;;;;;;;3.13;2.08;;;;;;;;;;5240632;28;20021;-69
2022/12/07 02:30:47;;;;;;;4.03;2.38;;;;;;;;;;5239817;28;20025;-69
2022/12/07 02:33:27;;;;;;;3.90;1.88;;;;;;;;;;5222188;28;20013;-69
2022/12/07 02:36:11;;;;;;;4.53;2.47;;;;;;;;;;5240245;28;20176;-69
2022/12/07 02:38:50;;;;;;;6.30;2.42;;;;;;;;;;5239991;28;20056;-68
2022/12/07 02:41:27;;;;;;;3.42;2.30;;;;;;;;;;5239469;28;20024;-69
2022/12/07 02:44:00;;;;;;;5.55;2.65;;;;;;;;;;5240117;28;20025;-69
2022/12/07 02:46:40;;;;;;;2.55;1.65;;;;;;;;;;5239419;28;20503;-68
2022/12/07 02:52:01;;;;;;;3.60;1.77;;;;;;;;;;5240136;28;20025;-69
2022/12/07 02:54:32;;;;;;;2.85;1.70;;;;;;;;;;5241839;28;20029;-69
2022/12/07 02:57:07;;;;;;;5.20;2.30;;;;;;;;;;5246912;28;20516;-69
2022/12/07 03:00:07;;;;;;;4.65;2.10;;;;;;;;;;5246776;28;20029;-68
2022/12/07 03:02:45;;;;;;;4.30;2.17;;;;;;;;;;5224698;28;20025;-69
2022/12/07 03:05:31;;;;;;;2.95;1.70;;;;;;;;;;5247207;28;20096;-69
2022/12/07 03:08:08;;;;;;;4.63;1.65;;;;;;;;;;5245912;28;20036;-68
2022/12/07 03:10:44;;;;;;;4.80;1.80;;;;;;;;;;5246264;28;20125;-69
2022/12/07 03:13:22;;;;;;;2.75;1.85;;;;;;;;;;5247193;28;20026;-69
2022/12/07 03:16:10;;;;;;;3.78;1.65;;;;;;;;;;5246150;28;20101;-70
2022/12/07 03:19:03;;;;;;;2.85;1.58;;;;;;;;;;5246286;28;20104;-69
2022/12/07 03:21:39;;;;;;;1.85;1.38;;;;;;;;;;5245898;28;20018;-70
2022/12/07 03:24:15;;;;;;;3.03;1.42;;;;;;;;;;5246703;28;20021;-70
2022/12/07 03:26:52;;;;;;;2.25;1.77;;;;;;;;;;5245955;28;20025;-70
2022/12/07 03:29:28;;;;;;;4.55;1.73;;;;;;;;;;5245431;28;20037;-70
2022/12/07 03:32:03;;;;;;;2.97;1.65;;;;;;;;;;5246449;28;20107;-70
2022/12/07 03:34:39;;;;;;;2.50;1.52;;;;;;;;;;5246300;28;20492;-70
2022/12/07 03:37:30;;;;;;;4.30;1.65;;;;;;;;;;5245802;28;20053;-69
2022/12/07 03:40:07;;;;;;;3.35;1.55;;;;;;;;;;5229030;28;20117;-69
2022/12/07 03:42:39;;;;;;;2.50;1.50;;;;;;;;;;5245786;28;20137;-69
2022/12/07 03:45:11;;;;;;;2.78;1.50;;;;;;;;;;5246603;28;20092;-70
2022/12/07 03:47:51;;;;;;;5.25;1.75;;;;;;;;;;5245947;28;20021;-69
2022/12/07 03:50:25;;;;;;;4.18;1.45;;;;;;;;;;5245792;28;20037;-69
2022/12/07 03:52:59;;;;;;;3.65;1.05;;;;;;;;;;5246198;28;20025;-69
2022/12/07 03:55:32;;;;;;;2.13;1.10;;;;;;;;;;5246211;28;20021;-69
2022/12/07 03:58:08;;;;;;;3.17;1.38;;;;;;;;;;5245402;28;20031;-69
2022/12/07 04:00:41;;;;;;;3.15;1.23;;;;;;;;;;5246171;28;20468;-70
2022/12/07 04:03:12;;;;;;;2.55;1.48;;;;;;;;;;5246830;28;20030;-69
2022/12/07 04:05:43;;;;;;;3.88;1.30;;;;;;;;;;5243367;28;20060;-69
2022/12/07 04:08:14;;;;;;;4.43;1.92;;;;;;;;;;5242891;28;20018;-69
2022/12/07 04:10:46;;;;;;;4.57;1.40;;;;;;;;;;5242540;28;20453;-69
2022/12/07 04:13:17;;;;;;;4.00;1.63;;;;;;;;;;5242629;28;20358;-69
2022/12/07 04:15:48;;;;;;;2.67;1.00;;;;;;;;;;5242654;28;20057;-69
2022/12/07 04:18:19;;;;;;;2.30;1.35;;;;;;;;;;5242413;28;20026;-69
2022/12/07 04:20:50;;;;;;;5.40;1.38;;;;;;;;;;5242605;28;20021;-69
2022/12/07 04:23:22;;;;;;;2.92;1.38;;;;;;;;;;5242729;28;20013;-69
2022/12/07 04:25:53;;;;;;;2.47;1.55;;;;;;;;;;5241783;28;20033;-69
2022/12/07 04:28:24;;;;;;;3.70;1.60;;;;;;;;;;5242466;28;20445;-69
2022/12/07 04:30:55;;;;;;;5.20;1.42;;;;;;;;;;5242682;28;20411;-69
2022/12/07 04:33:26;;;;;;;2.78;1.38;;;;;;;;;;5241826;28;20433;-69
2022/12/07 04:35:57;;;;;;;2.67;1.75;;;;;;;;;;5242235;28;20064;-69
2022/12/07 04:38:29;;;;;;;2.25;1.30;;;;;;;;;;5242660;28;20018;-69
2022/12/07 04:41:04;;;;;;;2.70;1.33;;;;;;;;;;5241723;28;20480;-69
2022/12/07 04:43:35;;;;;;;2.70;1.20;;;;;;;;;;5242431;28;20025;-69
2022/12/07 04:46:07;;;;;;;3.65;1.20;;;;;;;;;;5241287;28;20488;-69
2022/12/07 04:48:38;;;;;;;3.28;1.15;;;;;;;;;;5242127;28;20025;-69
2022/12/07 04:51:09;;;;;;;2.65;1.40;;;;;;;;;;5242264;28;20115;-69
2022/12/07 04:53:40;;;;;;;2.20;1.10;;;;;;;;;;5241054;28;20094;-69
2022/12/07 04:56:11;;;;;;;2.08;1.44;;;;;;;;;;5242377;28;20058;-70
2022/12/07 04:58:43;;;;;;;3.92;1.35;;;;;;;;;;5241554;28;20104;-70
2022/12/07 05:01:15;;;;;;;3.70;1.75;;;;;;;;;;5241709;28;20018;-70
2022/12/07 05:03:46;;;;;;;2.72;1.65;;;;;;;;;;5241613;28;20024;-69
2022/12/07 05:06:18;;;;;;;5.68;1.63;;;;;;;;;;5242259;28;20354;-70
2022/12/07 05:08:49;;;;;;;3.42;1.55;;;;;;;;;;5240803;28;20072;-70
2022/12/07 05:11:38;;;;;;;3.58;1.80;;;;;;;;;;5241809;28;20026;-70
2022/12/07 05:14:09;;;;;;;3.95;2.10;;;;;;;;;;5241462;28;20044;-70
2022/12/07 05:16:41;;;;;;;3.97;1.30;;;;;;;;;;5241214;28;20029;-71
2022/12/07 05:19:13;;;;;;;3.15;1.40;;;;;;;;;;5241498;28;20420;-70
2022/12/07 05:21:44;;;;;;;3.17;1.13;;;;;;;;;;5240504;28;20017;-70
2022/12/07 05:24:16;;;;;;;3.03;1.17;;;;;;;;;;5242049;28;20021;-69
2022/12/07 05:26:47;;;;;;;2.60;0.93;;;;;;;;;;5241239;28;20017;-70
2022/12/07 05:29:18;;;;;;;4.22;1.10;;;;;;;;;;5240907;28;20033;-70
2022/12/07 05:31:49;;;;;;;5.68;1.33;;;;;;;;;;5240977;28;20029;-69
2022/12/07 05:34:20;;;;;;;3.17;1.20;;;;;;;;;;5241400;28;20535;-70
2022/12/07 05:36:52;;;;;;;3.75;1.15;;;;;;;;;;5240296;28;20107;-70
2022/12/07 05:39:23;;;;;;;2.10;1.13;;;;;;;;;;5241372;28;20037;-70
2022/12/07 05:42:12;;;;;;;2.45;1.02;;;;;;;;;;5241196;28;20014;-69
2022/12/07 05:44:44;;;;;;;2.63;0.90;;;;;;;;;;5240101;28;20037;-69
2022/12/07 05:47:16;;;;;;;3.40;0.90;;;;;;;;;;5241519;28;20017;-69
2022/12/07 05:49:47;;;;;;;4.22;1.25;;;;;;;;;;5239818;28;20040;-70
2022/12/07 05:52:18;;;;;;;2.80;0.85;;;;;;;;;;5241262;28;20041;-70
2022/12/07 05:54:49;;;;;;;3.22;0.80;;;;;;;;;;5240644;28;20029;-70
2022/12/07 05:57:20;;;;;;;1.83;0.82;;;;;;;;;;5240064;28;20097;-70
2022/12/07 05:59:52;;;;;;;5.07;1.00;;;;;;;;;;5240775;28;20099;-70
2022/12/07 06:02:23;;;;;;;2.55;0.88;;;;;;;;;;5240706;28;20025;-69
2022/12/07 06:04:54;;;;;;;2.45;0.80;;;;;;;;;;5239997;28;20469;-70
2022/12/07 06:07:25;;;;;;;5.07;0.77;;;;;;;;;;5240584;28;20029;-69
2022/12/07 06:09:56;;;;;;;5.65;2.20;;;;;;;;;;5240687;28;20112;-69
2022/12/07 06:12:33;;;;;;;3.00;0.80;;;;;;;;;;5239884;28;20029;-69
2022/12/07 06:15:05;;;;;;;5.72;1.42;;;;;;;;;;5240650;28;20468;-69
2022/12/07 06:17:36;;;;;;;4.20;0.88;;;;;;;;;;5239597;28;20028;-69
2022/12/07 06:20:07;;;;;;;2.45;0.88;;;;;;;;;;5240217;28;20021;-69
2022/12/07 06:22:39;;;;;;;3.30;1.08;;;;;;;;;;5240292;28;20350;-69
2022/12/07 06:25:10;;;;;;;3.17;1.08;;;;;;;;;;5239994;28;20053;-69
2022/12/07 06:27:41;;;;;;;4.38;0.93;;;;;;;;;;5239977;28;20094;-69
2022/12/07 06:30:12;;;;;;;3.60;1.20;;;;;;;;;;5239752;28;20468;-69
2022/12/07 06:32:43;;;;;;;4.18;1.20;;;;;;;;;;5238975;28;20562;-69
2022/12/07 06:35:15;;;;;;;2.28;1.08;;;;;;;;;;5240632;28;20033;-69
2022/12/07 06:37:46;;;;;;;2.60;1.00;;;;;;;;;;5239751;28;20048;-69
2022/12/07 06:40:17;;;;;;;1.77;1.00;;;;;;;;;;5240083;28;20025;-68
2022/12/07 06:42:48;;;;;;;2.95;1.15;;;;;;;;;;5239681;28;20060;-68
2022/12/07 06:45:19;;;;;;;3.47;0.90;;;;;;;;;;5240508;28;20029;-70
2022/12/07 06:47:50;;;;;;;2.67;1.00;;;;;;;;;;5238969;28;20014;-69
2022/12/07 06:50:22;;;;;;;4.82;1.17;;;;;;;;;;5240177;28;20017;-71
2022/12/07 06:52:53;;;;;;;3.70;1.13;;;;;;;;;;5239218;28;20352;-70
2022/12/07 06:55:24;;;;;;;3.75;1.00;;;;;;;;;;5239949;28;20021;-70
2022/12/07 06:57:55;;;;;;;7.55;1.38;;;;;;;;;;5239979;28;20026;-70
2022/12/07 07:00:26;;;;;;;3.75;0.85;;;;;;;;;;5239110;28;20026;-70
2022/12/07 07:02:57;;;;;;;2.90;0.90;;;;;;;;;;5239974;28;20334;-70
2022/12/07 07:05:29;;;;;;;4.58;1.02;;;;;;;;;;5239867;28;20025;-70
2022/12/07 07:08:00;;;;;;;3.35;0.80;;;;;;;;;;5238802;28;20005;-70
2022/12/07 07:10:31;;;;;;;3.90;0.88;;;;;;;;;;5239925;28;20381;-68
2022/12/07 07:13:03;;;;;;;5.18;1.08;;;;;;;;;;5239626;28;20026;-69
2022/12/07 07:15:36;;;;;;;3.63;1.00;;;;;;;;;;5238896;28;20021;-69
2022/12/07 07:18:08;;;;;;;4.13;0.82;;;;;;;;;;5239519;28;20488;-70
2022/12/07 07:20:39;;;;;;;3.00;1.50;;;;;;;;;;5239068;28;20022;-71
2022/12/07 07:23:10;;;;;;;2.38;0.85;;;;;;;;;;5238741;28;20021;-70
2022/12/07 07:25:42;;;;;;;2.70;0.80;;;;;;;;;;5239084;28;20477;-70
2022/12/07 07:28:13;;;;;;;4.30;0.90;;;;;;;;;;5238759;28;20029;-69
2022/12/07 07:30:44;;;;;;;3.58;0.75;;;;;;;;;;5238982;28;20483;-70
2022/12/07 07:33:16;;;;;;;2.33;0.80;;;;;;;;;;5239714;28;20041;-69
2022/12/07 07:35:47;;;;;;;2.10;0.90;;;;;;;;;;5238115;28;20519;-70
2022/12/07 07:38:18;;;;;;;5.78;1.15;;;;;;;;;;5239744;28;20175;-70
2022/12/07 07:40:49;;;;;;;3.10;0.77;;;;;;;;;;5240601;28;20017;-69
2022/12/07 07:43:20;;;;;;;2.28;0.80;;;;;;;;;;5242564;28;20040;-69
2022/12/07 07:45:52;;;;;;;4.12;2.10;;;;;;;;;;5243173;28;20480;-69
2022/12/07 07:48:25;;;;;;;2.88;0.70;;;;;;;;;;5242821;28;20543;-68
2022/12/07 07:50:56;;;;;;;2.28;0.70;;;;;;;;;;5242493;28;20030;-69
2022/12/07 07:53:27;;;;;;;3.67;1.67;;;;;;;;;;5242870;28;20068;-69
2022/12/07 07:55:58;;;;;;;3.67;0.93;;;;;;;;;;5242141;28;20108;-68
2022/12/07 07:58:29;;;;;;;3.90;0.90;;;;;;;;;;5243394;28;20535;-69
2022/12/07 08:01:04;;;;;;;6.13;1.05;;;;;;;;;;5242886;28;20022;-68
2022/12/07 08:03:36;;;;;;;5.50;1.30;;;;;;;;;;5241996;28;20029;-68
2022/12/07 08:06:07;;;;;;;3.75;1.00;;;;;;;;;;5242815;28;20022;-69
2022/12/07 08:08:38;;;;;;;3.35;0.80;;;;;;;;;;5242609;28;20045;-69
2022/12/07 08:11:09;;;;;;;2.53;0.90;;;;;;;;;;5242379;28;20379;-69
2022/12/07 08:13:40;;;;;;;3.40;0.95;;;;;;;;;;5242517;28;20132;-69
2022/12/07 08:16:12;;;;;;;4.45;0.80;;;;;;;;;;5242888;28;20033;-68
2022/12/07 08:18:43;;;;;;;4.60;1.33;;;;;;;;;;5241518;28;20079;-68
2022/12/07 08:21:15;;;;;;;2.70;1.05;;;;;;;;;;5243035;28;20017;-68
2022/12/07 08:23:46;;;;;;;4.65;1.95;;;;;;;;;;5235263;28;20083;-68
2022/12/07 08:26:17;;;;;;;5.20;1.05;;;;;;;;;;5220934;28;20385;-68
2022/12/07 08:28:48;;;;;;;3.05;1.35;;;;;;;;;;5221115;28;20112;-68
2022/12/07 08:31:20;;;;;;;4.30;0.98;;;;;;;;;;5221141;28;20021;-69
2022/12/07 08:33:51;;;;;;;2.72;0.80;;;;;;;;;;5221434;28;20033;-68
2022/12/07 08:36:22;;;;;;;2.63;1.50;;;;;;;;;;5221428;28;20061;-69
2022/12/07 08:38:53;;;;;;;3.13;0.70;;;;;;;;;;5220723;28;20465;-68
2022/12/07 08:41:25;;;;;;;2.58;1.10;;;;;;;;;;5221501;28;20497;-68
2022/12/07 08:43:56;;;;;;;3.42;1.15;;;;;;;;;;5221552;28;20053;-68
2022/12/07 08:46:36;;;;;;;4.35;1.00;;;;;;;;;;5220929;28;20367;-68
2022/12/07 08:49:19;;;;;;;3.50;1.15;;;;;;;;;;5221364;28;20034;-68
2022/12/07 08:51:50;;;;;;;4.30;1.05;;;;;;;;;;5220420;28;20030;-69
2022/12/07 08:54:22;;;;;;;4.03;1.00;;;;;;;;;;5220447;28;20496;-69
2022/12/07 08:56:53;;;;;;;4.07;1.10;;;;;;;;;;5221463;28;20040;-68
2022/12/07 08:59:25;;;;;;;3.10;1.00;;;;;;;;;;5220723;28;20025;-68
2022/12/07 09:01:56;;;;;;;3.03;1.20;;;;;;;;;;5221140;28;20066;-67
2022/12/07 09:04:27;;;;;;;5.10;1.42;;;;;;;;;;5221139;28;20021;-69
2022/12/07 09:06:59;;;;;;;3.92;1.33;;;;;;;;;;5220429;28;20025;-68
2022/12/07 09:09:30;;;;;;;2.78;1.00;;;;;;;;;;5221184;28;20504;-68
2022/12/07 09:12:02;;;;;;;5.95;1.33;;;;;;;;;;5221218;28;20029;-68
2022/12/07 09:14:33;;;;;;;3.85;0.90;;;;;;;;;;5220275;28;20033;-69
2022/12/07 09:17:05;;;;;;;2.63;0.90;;;;;;;;;;5221029;28;20026;-69
2022/12/07 09:19:37;;;;;;;3.50;0.90;;;;;;;;;;5220806;28;20168;-68
2022/12/07 09:22:08;;;;;;;3.05;1.00;;;;;;;;;;5219654;28;20105;-68
2022/12/07 09:24:40;;;;;;;4.40;1.42;;;;;;;;;;5232971;28;20045;-68
2022/12/07 09:27:11;;;;;;;5.40;1.38;;;;;;;;;;5241020;28;20428;-68
2022/12/07 09:29:42;;;;;;;4.88;1.10;;;;;;;;;;5240499;28;20065;-69
2022/12/07 09:32:14;;;;;;;3.40;1.23;;;;;;;;;;5241598;28;20471;-68
2022/12/07 09:34:45;;;;;;;3.45;1.08;;;;;;;;;;5240124;28;20041;-68
2022/12/07 09:37:16;;;;;;;4.80;1.90;;;;;;;;;;5241287;28;20443;-68
2022/12/07 09:39:47;;;;;;;4.97;1.48;;;;;;;;;;5240852;28;20033;-68
2022/12/07 09:42:24;;;;;;;3.40;1.10;;;;;;;;;;5239974;28;20017;-68
2022/12/07 09:44:56;;;;;;;2.75;0.88;;;;;;;;;;5240798;28;20018;-67
2022/12/07 09:47:27;;;;;;;5.90;1.73;;;;;;;;;;5240956;28;20024;-68
2022/12/07 09:50:02;;;;;;;3.08;0.90;;;;;;;;;;5239931;28;20042;-70
2022/12/07 09:52:33;;;;;;;3.08;0.98;;;;;;;;;;5240574;28;20021;-68
2022/12/07 09:55:10;;;;;;;3.67;0.85;;;;;;;;;;5240910;28;20480;-68
2022/12/07 09:57:41;;;;;;;4.72;1.48;;;;;;;;;;5239309;28;20018;-68
2022/12/07 10:00:15;;;;;;;3.47;0.98;;;;;;;;;;5240703;28;20028;-68
2022/12/07 10:02:49;;;;;;;3.13;0.80;;;;;;;;;;5239374;28;20036;-68
2022/12/07 10:05:23;;;;;;;4.25;0.85;;;;;;;;;;5239486;28;20014;-68
2022/12/07 10:07:54;;;;;;;2.10;0.80;;;;;;;;;;5240469;28;20396;-68
2022/12/07 10:10:38;;;;;;;5.03;1.30;;;;;;;;;;5239830;28;20021;-71
2022/12/07 10:13:11;;;;;;;3.28;1.00;;;;;;;;;;5240224;28;20026;-70
2022/12/07 10:15:45;;;;;;;4.93;1.10;;;;;;;;;;5240136;28;20022;-69
2022/12/07 10:18:19;;;;;;;3.13;0.90;;;;;;;;;;5239929;28;20389;-68
2022/12/07 10:20:59;;;;;;;3.55;1.10;;;;;;;;;;5239688;28;20018;-66
2022/12/07 10:23:30;;;;;;;4.85;0.88;;;;;;;;;;5240118;28;20080;-69
2022/12/07 10:26:20;;;;;;;3.13;1.08;;;;;;;;;;5239590;28;20048;-68
2022/12/07 10:28:51;;;;;;;5.60;1.05;;;;;;;;;;5239903;28;20033;-68
2022/12/07 10:31:23;;;;;;;3.67;0.70;;;;;;;;;;5239481;28;20014;-69
2022/12/07 10:33:57;;;;;;;4.25;0.70;;;;;;;;;;5239971;28;20017;-69
2022/12/07 10:36:31;;;;;;;4.10;0.90;;;;;;;;;;5240014;28;20049;-69
2022/12/07 10:39:03;;;;;;;3.20;0.90;;;;;;;;;;5238700;28;20032;-68
2022/12/07 10:41:34;;;;;;;3.10;1.48;;;;;;;;;;5237947;28;20305;-68
2022/12/07 10:44:20;;;;;;;4.25;0.85;;;;;;;;;;5237669;28;20059;-67
2022/12/07 10:47:11;;;;;;;5.82;0.70;;;;;;;;;;5237205;28;20032;-68
2022/12/07 10:49:49;;;;;;;2.92;0.73;;;;;;;;;;5186521;28;20048;-70
2022/12/07 10:52:34;;;;;;;3.90;0.65;;;;;;;;;;5236815;28;20080;-69
2022/12/07 10:55:05;;;;;;;4.97;0.90;;;;;;;;;;5238805;28;20027;-68
2022/12/07 10:57:36;;;;;;;3.22;0.80;;;;;;;;;;5240143;28;20021;-69
2022/12/07 11:00:13;;;;;;;6.50;2.06;;;;;;;;;;5239080;28;20420;-69
2022/12/07 11:03:03;;;;;;;3.25;0.93;;;;;;;;;;5239418;28;20064;-69
2022/12/07 11:05:46;;;;;;;4.00;0.70;;;;;;;;;;5239400;28;20033;-69
2022/12/07 11:08:22;;;;;;;3.50;1.17;;;;;;;;;;5237301;28;20021;-69
2022/12/07 11:11:07;;;;;;;6.53;0.85;;;;;;;;;;5237556;28;20567;-68
2022/12/07 11:13:41;;;;;;;1.83;0.60;;;;;;;;;;5236612;28;20025;-71
2022/12/07 11:16:15;;;;;;;4.00;1.08;;;;;;;;;;5240096;28;20445;-69
2022/12/07 11:18:55;;;;;;;4.18;0.80;;;;;;;;;;5241525;28;20034;-69
2022/12/07 11:21:30;;;;;;;4.43;0.80;;;;;;;;;;5241381;28;20033;-68
2022/12/07 11:24:16;;;;;;;4.38;0.60;;;;;;;;;;5243635;28;20022;-69
2022/12/07 11:26:55;;;;;;;2.15;0.60;;;;;;;;;;5243204;28;20024;-69
2022/12/07 11:29:33;;;;;;;3.95;0.60;;;;;;;;;;5243775;28;20437;-70
2022/12/07 11:32:15;;;;;;;4.18;0.57;;;;;;;;;;5243704;28;20029;-70
2022/12/07 11:35:02;;;;;;;3.55;0.55;;;;;;;;;;5242554;28;20022;-71
2022/12/07 11:37:34;;;;;;;3.17;0.50;;;;;;;;;;5243087;28;20136;-70
2022/12/07 11:40:14;;;;;;;3.63;0.65;;;;;;;;;;5243460;28;20021;-70
2022/12/07 11:43:01;;;;;;;4.05;0.85;;;;;;;;;;5242226;28;20024;-69
2022/12/07 11:45:37;;;;;;;3.10;0.82;;;;;;;;;;5243425;28;20022;-70
2022/12/07 11:48:21;;;;;;;2.92;0.50;;;;;;;;;;5242353;28;20427;-69
2022/12/07 11:50:55;;;;;;;3.55;0.50;;;;;;;;;;5243170;28;20494;-69
2022/12/07 11:53:29;;;;;;;2.28;0.70;;;;;;;;;;5243010;28;20025;-70
2022/12/07 11:56:12;;;;;;;4.60;0.95;;;;;;;;;;5242304;28;20017;-69
2022/12/07 11:58:47;;;;;;;4.75;0.52;;;;;;;;;;5242982;28;20532;-69
2022/12/07 12:01:30;;;;;;;2.50;0.50;;;;;;;;;;5243413;28;20455;-69
2022/12/07 12:04:11;;;;;;;4.63;0.55;;;;;;;;;;5242374;28;20025;-69
2022/12/07 12:06:43;;;;;;;6.65;0.65;;;;;;;;;;5242475;28;20025;-71
2022/12/07 12:09:30;;;;;;;2.03;0.40;;;;;;;;;;5242211;28;20472;-71
2022/12/07 12:12:10;;;;;;;1.88;0.40;;;;;;;;;;5242983;28;20026;-71
2022/12/07 12:14:41;;;;;;;2.83;0.40;;;;;;;;;;5242470;28;20092;-70
2022/12/07 12:17:31;;;;;;;2.20;0.40;;;;;;;;;;5242185;28;20099;-71
2022/12/07 12:20:16;;;;;;;1.25;0.22;;;;;;;;;;5242780;28;20449;-71
2022/12/07 12:22:51;;;;;;;1.95;0.63;;;;;;;;;;5242412;28;20540;-71
2022/12/07 12:25:29;;;;;;;2.75;0.55;;;;;;;;;;5241986;28;20376;-71
2022/12/07 12:28:01;;;;;;;3.30;0.40;;;;;;;;;;5241353;28;20056;-71
2022/12/07 12:30:34;;;;;;;2.30;0.30;;;;;;;;;;5241809;28;20433;-70
2022/12/07 12:33:12;;;;;;;3.03;0.60;;;;;;;;;;5242644;28;20024;-70
2022/12/07 12:35:43;;;;;;;2.72;0.50;;;;;;;;;;5241748;28;20033;-71
2022/12/07 12:38:26;;;;;;;2.00;0.60;;;;;;;;;;5242047;28;20025;-71
2022/12/07 12:40:58;;;;;;;2.80;0.65;;;;;;;;;;5242397;28;20443;-72
2022/12/07 12:43:43;;;;;;;2.88;0.40;;;;;;;;;;5242250;28;20026;-71
2022/12/07 12:46:29;;;;;;;4.53;0.60;;;;;;;;;;5241842;28;20461;-70
2022/12/07 12:49:31;;;;;;;3.03;0.50;;;;;;;;;;5242050;28;20041;-71
2022/12/07 12:52:14;;;;;;;2.65;0.50;;;;;;;;;;5241666;28;20079;-71
2022/12/07 12:55:11;;;;;;;1.90;0.32;;;;;;;;;;5241752;28;20021;-69
2022/12/07 12:57:42;;;;;;;3.72;0.40;;;;;;;;;;5241720;28;20021;-69
2022/12/07 13:00:21;;;;;;;2.55;0.38;;;;;;;;;;5241660;28;20018;-70
2022/12/07 13:02:53;;;;;;;2.58;0.30;;;;;;;;;;5241772;28;20025;-71
2022/12/07 13:05:27;;;;;;;2.72;0.50;;;;;;;;;;5241094;28;20013;-71
2022/12/07 13:08:02;;;;;;;3.92;0.50;;;;;;;;;;5241338;28;20030;-70
2022/12/07 13:10:38;;;;;;;1.30;0.30;;;;;;;;;;5241694;28;20535;-70
2022/12/07 13:13:10;;;;;;;3.22;0.70;;;;;;;;;;5240872;28;20021;-71
2022/12/07 13:15:41;;;;;;;2.03;0.30;;;;;;;;;;5241188;28;20059;-71
2022/12/07 13:18:28;;;;;;;1.90;0.50;;;;;;;;;;5241843;28;20520;-71
2022/12/07 13:21:08;;;;;;;2.72;0.38;;;;;;;;;;5240577;28;20335;-71
2022/12/07 13:23:45;;;;;;;3.60;0.75;;;;;;;;;;5241121;28;20013;-71
2022/12/07 13:26:32;;;;;;;3.15;0.30;;;;;;;;;;5234576;28;20120;-71
2022/12/07 13:29:03;;;;;;;2.88;0.20;;;;;;;;;;5230137;28;20041;-71
2022/12/07 13:31:41;;;;;;;2.78;0.30;;;;;;;;;;5229712;28;20010;-71
2022/12/07 13:34:30;;;;;;;1.63;0.30;;;;;;;;;;5229040;28;20469;-72
2022/12/07 13:37:19;;;;;;;2.00;0.30;;;;;;;;;;5229316;28;20132;-71
2022/12/07 13:39:54;;;;;;;1.88;0.30;;;;;;;;;;5230602;28;20040;-71
2022/12/07 13:42:33;;;;;;;3.10;0.45;;;;;;;;;;5229742;28;20484;-71
2022/12/07 13:45:20;;;;;;;3.20;0.30;;;;;;;;;;5238280;28;20115;-71
2022/12/07 13:47:53;;;;;;;3.45;0.85;;;;;;;;;;5240254;28;20028;-71
2022/12/07 13:50:28;;;;;;;3.47;0.60;;;;;;;;;;5240984;28;20376;-72
2022/12/07 13:53:00;;;;;;;2.25;0.30;;;;;;;;;;5240742;28;20049;-72
2022/12/07 13:55:32;;;;;;;2.25;0.25;;;;;;;;;;5239998;28;20021;-72
2022/12/07 13:58:03;;;;;;;2.15;0.30;;;;;;;;;;5240614;28;20409;-71
2022/12/07 14:00:34;;;;;;;3.58;0.40;;;;;;;;;;5240950;28;20461;-71
2022/12/07 14:03:11;;;;;;;2.20;0.30;;;;;;;;;;5239945;28;20028;-72
2022/12/07 14:05:43;;;;;;;4.57;0.45;;;;;;;;;;5240330;28;20071;-72
2022/12/07 14:08:15;;;;;;;3.95;0.30;;;;;;;;;;5240611;28;20025;-70
2022/12/07 14:10:49;;;;;;;1.73;0.30;;;;;;;;;;5239363;28;20037;-71
2022/12/07 14:13:34;;;;;;;2.85;0.40;;;;;;;;;;5240573;28;20087;-71
2022/12/07 14:16:17;;;;;;;2.47;0.30;;;;;;;;;;5239747;28;20100;-70
2022/12/07 14:18:48;;;;;;;2.88;0.45;;;;;;;;;;5240206;28;20063;-72
2022/12/07 14:21:24;;;;;;;3.28;0.30;;;;;;;;;;5240567;28;20029;-71
2022/12/07 14:24:14;;;;;;;1.40;0.30;;;;;;;;;;5239500;28;20013;-71
2022/12/07 14:26:47;;;;;;;2.03;0.30;;;;;;;;;;5240211;28;20079;-72
2022/12/07 14:29:21;;;;;;;2.25;0.30;;;;;;;;;;5240303;28;20032;-71
2022/12/07 14:31:52;;;;;;;1.83;0.40;;;;;;;;;;5239283;28;20022;-71
2022/12/07 14:34:24;;;;;;;1.25;0.35;;;;;;;;;;5239960;28;20511;-70
2022/12/07 14:36:55;;;;;;;6.85;0.50;;;;;;;;;;5239177;28;20489;-69
2022/12/07 14:39:26;;;;;;;0.88;0.30;;;;;;;;;;5240011;28;20033;-69
2022/12/07 14:41:58;;;;;;;1.70;0.50;;;;;;;;;;5239893;28;20061;-71
2022/12/07 14:44:29;;;;;;;3.63;0.90;;;;;;;;;;5239448;28;20032;-71
2022/12/07 14:47:00;;;;;;;2.42;0.73;;;;;;;;;;5239799;28;20025;-72
2022/12/07 14:49:31;;;;;;;4.32;0.50;;;;;;;;;;5239689;28;20469;-72
2022/12/07 14:52:03;;;;;;;2.10;0.40;;;;;;;;;;5238817;28;20456;-72
2022/12/07 14:54:34;;;;;;;1.60;0.50;;;;;;;;;;5239867;28;20482;-72
2022/12/07 14:57:07;;;;;;;1.17;0.40;;;;;;;;;;5240026;28;20358;-70
2022/12/07 14:59:38;;;;;;;2.25;0.50;;;;;;;;;;5238771;28;20108;-70
2022/12/07 15:02:10;;;;;;;2.55;0.50;;;;;;;;;;5240398;28;20544;-70
2022/12/07 15:04:41;;;;;;;2.70;0.50;;;;;;;;;;5239364;28;20053;-71
2022/12/07 15:07:18;;;;;;;1.27;0.40;;;;;;;;;;5239195;28;20436;-71
2022/12/07 15:09:49;;;;;;;1.58;0.38;;;;;;;;;;5239534;28;20065;-71
2022/12/07 15:12:20;;;;;;;1.90;0.45;;;;;;;;;;5238739;28;20084;-71
2022/12/07 15:14:51;;;;;;;2.42;0.55;;;;;;;;;;5239727;28;20097;-70
2022/12/07 15:17:22;;;;;;;2.25;0.40;;;;;;;;;;5239537;28;20029;-71
2022/12/07 15:19:54;;;;;;;1.90;0.55;;;;;;;;;;5238704;28;20025;-71
2022/12/07 15:22:25;;;;;;;1.77;0.60;;;;;;;;;;5239677;28;20018;-70
2022/12/07 15:24:56;;;;;;;2.92;0.63;;;;;;;;;;5239626;28;20025;-70
2022/12/07 15:27:27;;;;;;;1.95;0.57;;;;;;;;;;5238809;28;20018;-71